Time;durP1;ratioP1;P1;durP2;ratioP2;P2;SDS_P1;SDS_P2;PMS_P1;PMS_P2;Temp;Humidity;BMP_temperature;BMP_pressure;BME280_temperature;BME280_humidity;BME280_pressure;Samples;Min_cycle;Max_cycle;Signal;HPM_P1;HPM_P2
2021/12/10 00:01:11;;;;;;;41.38;21.85;;;5.50;99.90;;;;;;5076268;28;20082;-78
2021/12/10 00:03:47;;;;;;;43.13;21.98;;;5.50;99.90;;;;;;5061768;28;20127;-78
2021/12/10 00:06:20;;;;;;;41.33;22.05;;;5.50;99.90;;;;;;5066441;28;20063;-78
2021/12/10 00:08:52;;;;;;;49.67;22.63;;;5.50;99.90;;;;;;5083504;28;20039;-79
2021/12/10 00:11:34;;;;;;;44.40;20.58;;;5.60;99.90;;;;;;5086053;28;20060;-78
2021/12/10 00:14:01;;;;;;;40.20;21.85;;;5.60;99.90;;;;;;5102536;27;20036;-79
2021/12/10 00:16:27;;;;;;;41.45;21.30;;;5.60;99.90;;;;;;5082445;28;20130;-78
2021/12/10 00:19:05;;;;;;;44.97;22.42;;;5.60;99.90;;;;;;5065264;28;20602;-79
2021/12/10 00:21:31;;;;;;;37.10;21.23;;;5.60;99.90;;;;;;5076543;28;20093;-79
2021/12/10 00:23:57;;;;;;;47.60;22.52;;;5.60;99.90;;;;;;5084107;28;20044;-79
2021/12/10 00:26:23;;;;;;;42.42;22.33;;;5.60;99.90;;;;;;5077583;28;20043;-79
2021/12/10 00:28:49;;;;;;;45.20;21.88;;;5.50;99.90;;;;;;5076812;28;20359;-78
2021/12/10 00:31:31;;;;;;;41.28;20.58;;;5.60;99.90;;;;;;5080405;28;20046;-79
2021/12/10 00:34:06;;;;;;;39.50;20.48;;;5.60;99.90;;;;;;5083012;28;20082;-79
2021/12/10 00:36:34;;;;;;;36.53;21.33;;;5.60;99.90;;;;;;5078624;28;20045;-79
2021/12/10 00:39:02;;;;;;;42.97;19.98;;;5.60;99.90;;;;;;5082865;28;20508;-79
2021/12/10 00:41:29;;;;;;;40.22;20.25;;;5.60;99.90;;;;;;5085178;28;20516;-79
2021/12/10 00:43:54;;;;;;;44.45;19.92;;;5.60;99.90;;;;;;5082951;28;20052;-78
2021/12/10 00:46:20;;;;;;;37.25;19.23;;;5.60;99.90;;;;;;5083607;28;20028;-78
2021/12/10 00:48:46;;;;;;;38.40;19.05;;;5.60;99.90;;;;;;5064194;28;20043;-78
2021/12/10 00:51:13;;;;;;;39.53;20.75;;;5.60;99.90;;;;;;5061360;28;20400;-79
2021/12/10 00:53:40;;;;;;;39.58;19.95;;;5.60;99.90;;;;;;5076517;28;20036;-78
2021/12/10 00:56:07;;;;;;;40.80;20.65;;;5.60;99.90;;;;;;5062599;28;20036;-78
2021/12/10 00:58:34;;;;;;;36.67;19.45;;;5.60;99.90;;;;;;5082810;28;20047;-78
2021/12/10 01:01:04;;;;;;;38.10;19.88;;;5.60;99.90;;;;;;5062861;28;20515;-78
2021/12/10 01:03:39;;;;;;;40.05;20.15;;;5.60;99.90;;;;;;5083835;28;20036;-79
2021/12/10 01:06:10;;;;;;;45.90;21.02;;;5.60;99.90;;;;;;5084661;28;20043;-79
2021/12/10 01:08:40;;;;;;;41.00;19.58;;;5.60;99.90;;;;;;5079115;28;20424;-79
2021/12/10 01:11:15;;;;;;;42.20;18.98;;;5.60;99.90;;;;;;5074296;28;20083;-79
2021/12/10 01:13:45;;;;;;;40.63;18.98;;;5.60;99.90;;;;;;5082423;28;20115;-79
2021/12/10 01:27:02;;;;;;;38.22;19.85;;;5.60;99.90;;;;;;5080851;28;20040;-79
2021/12/10 01:29:35;;;;;;;40.80;18.75;;;5.60;99.90;;;;;;5081870;28;20062;-78
2021/12/10 01:32:08;;;;;;;36.28;19.02;;;5.60;99.90;;;;;;5098218;27;20035;-79
2021/12/10 01:34:34;;;;;;;32.55;17.13;;;5.60;99.90;;;;;;5078851;28;20127;-79
2021/12/10 01:37:01;;;;;;;38.47;18.10;;;5.60;99.90;;;;;;5085538;28;20158;-79
2021/12/10 01:39:30;;;;;;;30.75;17.50;;;5.60;99.90;;;;;;5083404;28;20055;-78
2021/12/10 01:42:11;;;;;;;38.78;18.50;;;5.70;99.90;;;;;;5083320;28;20406;-79
2021/12/10 01:44:42;;;;;;;39.78;17.63;;;5.60;99.90;;;;;;5078615;28;20115;-79
2021/12/10 01:47:10;;;;;;;33.67;17.40;;;5.60;99.90;;;;;;5086156;28;20500;-78
2021/12/10 01:49:37;;;;;;;35.00;17.95;;;5.60;99.90;;;;;;5081994;28;20598;-79
2021/12/10 01:52:04;;;;;;;30.80;16.02;;;5.60;99.90;;;;;;5092065;28;20649;-78
2021/12/10 01:54:39;;;;;;;33.65;16.38;;;5.60;99.90;;;;;;5076474;28;20043;-79
2021/12/10 01:57:06;;;;;;;35.08;16.25;;;5.60;99.90;;;;;;5069740;28;20112;-79
2021/12/10 01:59:36;;;;;;;31.77;15.52;;;5.60;99.90;;;;;;5072922;28;20043;-79
2021/12/10 02:02:10;;;;;;;23.85;15.43;;;5.50;99.90;;;;;;5084322;28;20085;-79
2021/12/10 02:04:38;;;;;;;30.20;14.90;;;5.50;99.90;;;;;;5089204;28;20043;-79
2021/12/10 02:07:06;;;;;;;25.67;14.65;;;5.50;99.90;;;;;;5087088;28;20032;-78
2021/12/10 02:09:32;;;;;;;25.80;15.48;;;5.50;99.90;;;;;;5084289;28;20047;-79
2021/12/10 02:11:58;;;;;;;28.38;13.73;;;5.40;99.90;;;;;;5086870;28;20028;-78
2021/12/10 02:14:24;;;;;;;27.05;13.57;;;5.40;99.90;;;;;;5082030;28;20174;-79
2021/12/10 02:16:52;;;;;;;27.10;14.30;;;5.50;99.90;;;;;;5089510;28;20039;-79
2021/12/10 02:19:18;;;;;;;30.08;14.88;;;5.40;99.90;;;;;;5082991;28;20041;-79
2021/12/10 02:21:45;;;;;;;26.92;14.85;;;5.50;99.90;;;;;;5060858;28;20070;-78
2021/12/10 02:24:11;;;;;;;28.70;14.98;;;5.40;99.90;;;;;;5083147;28;20119;-79
2021/12/10 02:26:42;;;;;;;27.20;14.48;;;5.40;99.90;;;;;;5082059;28;20153;-78
2021/12/10 02:29:08;;;;;;;27.58;14.52;;;5.50;99.90;;;;;;5063559;28;20036;-78
2021/12/10 02:31:35;;;;;;;32.90;14.77;;;5.50;99.90;;;;;;5085048;28;20058;-79
2021/12/10 02:34:02;;;;;;;26.88;14.45;;;5.50;99.90;;;;;;5086505;28;20611;-79
2021/12/10 02:36:28;;;;;;;24.60;14.07;;;5.50;99.90;;;;;;5083212;28;20047;-79
2021/12/10 02:38:55;;;;;;;29.25;14.35;;;5.50;99.90;;;;;;5087614;28;20036;-79
2021/12/10 02:41:25;;;;;;;27.23;14.13;;;5.50;99.90;;;;;;5078463;28;20056;-79
2021/12/10 02:43:51;;;;;;;24.70;14.18;;;5.40;99.90;;;;;;5079575;28;20036;-79
2021/12/10 02:46:17;;;;;;;30.38;14.73;;;5.50;99.90;;;;;;5084409;28;20047;-79
2021/12/10 02:48:43;;;;;;;23.15;13.50;;;5.50;99.90;;;;;;5077950;28;20397;-79
2021/12/10 02:51:10;;;;;;;22.92;12.45;;;5.40;99.90;;;;;;5098711;28;20042;-79
2021/12/10 02:53:41;;;;;;;26.63;12.57;;;5.40;99.90;;;;;;5083663;28;20496;-78
2021/12/10 02:56:09;;;;;;;23.90;12.25;;;5.50;99.90;;;;;;5064626;28;20041;-79
2021/12/10 02:58:34;;;;;;;25.77;13.77;;;5.50;99.90;;;;;;5084377;28;20035;-79
2021/12/10 03:01:09;;;;;;;33.97;13.85;;;5.50;99.90;;;;;;5083993;28;20028;-79
2021/12/10 03:03:37;;;;;;;29.13;13.85;;;5.50;99.90;;;;;;5082901;28;20044;-79
2021/12/10 03:06:09;;;;;;;30.23;13.05;;;5.50;99.90;;;;;;5082168;28;20055;-78
2021/12/10 03:08:35;;;;;;;27.52;14.13;;;5.40;99.90;;;;;;5086861;28;20032;-79
2021/12/10 03:11:01;;;;;;;27.85;13.95;;;5.50;99.90;;;;;;5068796;28;20043;-79
2021/12/10 03:13:26;;;;;;;26.83;13.77;;;5.40;99.90;;;;;;5066298;28;20043;-79
2021/12/10 03:15:53;;;;;;;35.95;14.98;;;5.40;99.90;;;;;;5083317;28;20036;-79
2021/12/10 03:18:19;;;;;;;25.23;13.48;;;5.40;99.90;;;;;;5067757;28;20032;-79
2021/12/10 03:20:45;;;;;;;25.52;14.07;;;5.40;99.90;;;;;;5083856;28;20039;-78
2021/12/10 03:23:11;;;;;;;25.77;14.00;;;5.40;99.90;;;;;;5064210;28;20036;-79
2021/12/10 03:25:38;;;;;;;27.60;14.32;;;5.40;99.90;;;;;;5077489;28;20112;-79
2021/12/10 03:28:05;;;;;;;29.70;16.05;;;5.40;99.90;;;;;;5084311;28;20582;-79
2021/12/10 03:30:35;;;;;;;34.75;15.23;;;5.40;99.90;;;;;;5066102;28;20044;-79
2021/12/10 03:33:00;;;;;;;29.70;15.43;;;5.40;99.90;;;;;;5086394;28;20047;-79
2021/12/10 03:35:31;;;;;;;29.90;16.92;;;5.30;99.90;;;;;;5085686;28;20032;-79
2021/12/10 03:37:59;;;;;;;31.05;17.52;;;5.40;99.90;;;;;;5064041;28;20048;-79
2021/12/10 03:40:25;;;;;;;28.17;18.42;;;5.40;99.90;;;;;;5079561;28;20419;-79
2021/12/10 03:42:58;;;;;;;30.90;18.48;;;5.40;99.90;;;;;;5076383;28;20040;-79
2021/12/10 03:45:32;;;;;;;36.75;19.52;;;5.30;99.90;;;;;;5065816;28;20037;-79
2021/12/10 03:48:00;;;;;;;31.92;19.08;;;5.30;99.90;;;;;;5082074;28;20032;-79
2021/12/10 03:50:29;;;;;;;36.65;20.00;;;5.30;99.90;;;;;;5061033;28;20436;-79
2021/12/10 03:52:55;;;;;;;35.97;20.83;;;5.30;99.90;;;;;;5081591;28;20169;-79
2021/12/10 03:55:22;;;;;;;31.38;19.33;;;5.20;99.90;;;;;;5079082;28;20158;-79
2021/12/10 03:57:49;;;;;;;30.85;18.13;;;5.30;99.90;;;;;;5074149;28;20028;-79
2021/12/10 04:00:18;;;;;;;33.30;19.73;;;5.20;99.90;;;;;;5066700;28;20039;-79
2021/12/10 04:02:44;;;;;;;32.97;19.15;;;5.20;99.90;;;;;;5081362;28;20435;-79
2021/12/10 04:05:09;;;;;;;29.80;18.98;;;5.30;99.90;;;;;;5075964;28;20039;-79
2021/12/10 04:07:35;;;;;;;30.80;18.83;;;5.20;99.90;;;;;;5066029;28;20028;-79
2021/12/10 04:10:01;;;;;;;30.48;18.63;;;5.20;99.90;;;;;;5065378;28;20089;-79
2021/12/10 04:12:27;;;;;;;29.95;18.13;;;5.20;99.90;;;;;;5081214;28;20603;-78
2021/12/10 04:14:53;;;;;;;32.70;18.45;;;5.20;99.90;;;;;;5066556;28;20150;-79
2021/12/10 04:17:21;;;;;;;25.63;16.92;;;5.30;99.90;;;;;;5080280;28;20130;-79
2021/12/10 04:19:49;;;;;;;25.10;16.85;;;5.20;99.90;;;;;;5083296;28;20532;-78
2021/12/10 04:22:16;;;;;;;25.45;17.10;;;5.30;99.90;;;;;;5068603;28;20123;-79
2021/12/10 04:24:42;;;;;;;27.33;16.55;;;5.20;99.90;;;;;;5082035;28;20052;-79
2021/12/10 04:27:12;;;;;;;27.98;16.33;;;5.20;99.90;;;;;;5076176;28;20044;-79
2021/12/10 04:29:38;;;;;;;27.13;16.05;;;5.20;99.90;;;;;;5081706;28;20033;-79
2021/12/10 04:32:06;;;;;;;31.73;16.65;;;5.20;99.90;;;;;;5077129;28;20109;-78
2021/12/10 04:34:32;;;;;;;27.13;16.05;;;5.20;99.90;;;;;;5082462;28;20506;-79
2021/12/10 04:37:00;;;;;;;29.13;15.68;;;5.10;99.90;;;;;;5085769;28;20521;-79
2021/12/10 04:39:29;;;;;;;25.30;14.65;;;5.10;99.90;;;;;;5080867;28;20115;-78
2021/12/10 04:41:55;;;;;;;26.08;14.43;;;5.10;99.90;;;;;;5083864;28;20455;-79
2021/12/10 04:44:20;;;;;;;27.65;16.13;;;5.00;99.90;;;;;;5071626;28;20047;-79
2021/12/10 04:46:46;;;;;;;30.55;15.45;;;5.00;99.90;;;;;;5078550;28;20187;-78
2021/12/10 04:49:14;;;;;;;25.45;15.75;;;5.00;99.90;;;;;;5074253;28;20032;-79
2021/12/10 04:51:50;;;;;;;31.20;15.18;;;5.00;99.90;;;;;;5098633;28;20488;-78
2021/12/10 04:54:18;;;;;;;27.63;15.75;;;5.00;99.90;;;;;;5083054;28;20043;-78
2021/12/10 04:56:44;;;;;;;27.35;15.05;;;4.90;99.90;;;;;;5078775;28;20405;-79
2021/12/10 04:59:14;;;;;;;26.80;15.10;;;4.90;99.90;;;;;;5065967;28;20044;-78
2021/12/10 05:01:40;;;;;;;27.20;15.90;;;4.90;99.90;;;;;;5083913;28;20090;-78
2021/12/10 05:04:07;;;;;;;25.10;14.55;;;4.80;99.90;;;;;;5081106;28;20650;-79
2021/12/10 05:06:34;;;;;;;28.23;16.55;;;4.80;99.90;;;;;;5083023;28;20504;-78
2021/12/10 05:09:00;;;;;;;29.20;15.05;;;4.80;99.90;;;;;;5096625;28;20029;-79
2021/12/10 05:11:26;;;;;;;29.42;16.52;;;4.80;99.90;;;;;;5078953;28;20531;-78
2021/12/10 05:13:51;;;;;;;28.60;16.75;;;4.80;99.90;;;;;;5080372;28;20043;-78
2021/12/10 05:16:24;;;;;;;25.80;14.80;;;4.80;99.90;;;;;;5079631;28;20101;-78
2021/12/10 05:18:56;;;;;;;24.00;16.05;;;4.80;99.90;;;;;;5076954;28;20040;-78
2021/12/10 05:21:23;;;;;;;30.55;16.35;;;4.80;99.90;;;;;;5081879;28;20047;-79
2021/12/10 05:23:48;;;;;;;28.67;16.33;;;4.80;99.90;;;;;;5078477;28;20704;-79
2021/12/10 05:26:14;;;;;;;31.85;15.50;;;4.80;99.90;;;;;;5077312;28;20519;-78
2021/12/10 05:28:40;;;;;;;26.70;16.58;;;4.70;99.90;;;;;;5078303;28;20085;-78
2021/12/10 05:31:06;;;;;;;25.73;15.05;;;4.70;99.90;;;;;;5081421;28;20044;-78
2021/12/10 05:33:32;;;;;;;24.52;15.52;;;4.70;99.90;;;;;;5081406;28;20071;-78
2021/12/10 05:35:59;;;;;;;26.70;14.95;;;4.70;99.90;;;;;;5083381;28;20044;-79
2021/12/10 05:38:25;;;;;;;27.50;16.60;;;4.70;99.90;;;;;;5077230;28;20086;-78
2021/12/10 05:40:53;;;;;;;28.85;15.70;;;4.60;99.90;;;;;;5093457;28;20048;-79
2021/12/10 05:43:19;;;;;;;23.17;15.10;;;4.70;99.90;;;;;;5061509;28;20095;-79
2021/12/10 05:45:46;;;;;;;22.80;13.98;;;4.70;99.90;;;;;;5077102;28;20032;-78
2021/12/10 05:48:12;;;;;;;21.42;13.23;;;4.70;99.90;;;;;;5085041;28;20035;-78
2021/12/10 05:50:39;;;;;;;23.20;13.15;;;4.60;99.90;;;;;;5078037;28;20036;-78
2021/12/10 05:53:06;;;;;;;20.90;13.70;;;4.60;99.90;;;;;;5079991;28;20036;-79
2021/12/10 05:55:33;;;;;;;20.98;13.35;;;4.60;99.90;;;;;;5076327;28;20028;-78
2021/12/10 05:57:59;;;;;;;22.00;13.10;;;4.50;99.90;;;;;;5062834;28;20075;-78
2021/12/10 06:00:35;;;;;;;20.42;12.60;;;4.50;99.90;;;;;;5075177;28;20033;-78
2021/12/10 06:03:01;;;;;;;21.92;12.73;;;4.50;99.90;;;;;;5083143;28;20089;-78
2021/12/10 06:05:29;;;;;;;20.77;12.25;;;4.50;99.90;;;;;;5080523;28;20068;-78
2021/12/10 06:07:55;;;;;;;23.67;12.77;;;4.40;99.90;;;;;;5064169;28;20038;-78
2021/12/10 06:10:23;;;;;;;17.38;11.55;;;4.40;99.90;;;;;;5081053;28;20040;-78
2021/12/10 06:12:49;;;;;;;22.08;11.30;;;4.30;99.90;;;;;;5069068;28;20064;-78
2021/12/10 06:15:18;;;;;;;20.25;11.70;;;4.40;99.90;;;;;;5083082;28;20037;-78
2021/12/10 06:17:44;;;;;;;18.90;11.13;;;4.30;99.90;;;;;;5085044;28;20135;-79
2021/12/10 06:20:13;;;;;;;18.92;11.35;;;4.30;99.90;;;;;;5084147;28;20123;-78
2021/12/10 06:22:39;;;;;;;17.52;11.18;;;4.30;99.90;;;;;;5081169;28;20033;-78
2021/12/10 06:25:06;;;;;;;18.27;11.95;;;4.30;99.90;;;;;;5066373;28;20519;-78
2021/12/10 06:27:32;;;;;;;17.70;10.70;;;4.20;99.90;;;;;;5095567;28;20110;-78
2021/12/10 06:29:58;;;;;;;18.33;10.98;;;4.20;99.90;;;;;;5082915;28;20058;-78
2021/12/10 06:32:26;;;;;;;16.75;11.32;;;4.20;99.90;;;;;;5084889;28;20040;-78
2021/12/10 06:34:52;;;;;;;17.95;10.48;;;4.20;99.90;;;;;;5080026;28;20032;-78
2021/12/10 06:37:18;;;;;;;20.55;11.05;;;4.20;99.90;;;;;;5085916;28;20042;-78
2021/12/10 06:39:43;;;;;;;23.33;11.98;;;4.10;99.90;;;;;;5061209;28;20040;-78
2021/12/10 06:42:09;;;;;;;20.23;12.77;;;4.20;99.90;;;;;;5080940;28;20361;-78
2021/12/10 06:44:35;;;;;;;19.98;12.00;;;4.10;99.90;;;;;;5083917;28;20032;-78
2021/12/10 06:47:05;;;;;;;18.27;10.98;;;4.10;99.90;;;;;;5083979;28;20080;-78
2021/12/10 06:49:34;;;;;;;19.33;12.30;;;4.00;99.90;;;;;;5067255;28;20060;-78
2021/12/10 06:52:01;;;;;;;16.70;10.10;;;4.00;99.90;;;;;;5068614;28;20060;-78
2021/12/10 06:54:28;;;;;;;15.55;10.23;;;4.00;99.90;;;;;;5088365;28;20071;-79
2021/12/10 06:56:56;;;;;;;21.80;11.85;;;3.90;99.90;;;;;;5068558;28;20801;-78
2021/12/10 06:59:24;;;;;;;17.33;11.05;;;3.90;99.90;;;;;;5063629;28;20055;-78
2021/12/10 07:01:50;;;;;;;21.23;10.65;;;3.90;99.90;;;;;;5062894;28;20032;-78
2021/12/10 07:04:16;;;;;;;18.25;10.30;;;3.90;99.90;;;;;;5081020;28;20036;-79
2021/12/10 07:06:44;;;;;;;17.45;10.38;;;3.80;99.90;;;;;;5086665;28;20465;-78
2021/12/10 07:09:17;;;;;;;15.93;10.02;;;3.80;99.90;;;;;;5078779;28;20491;-78
2021/12/10 07:11:43;;;;;;;16.23;9.85;;;3.80;99.90;;;;;;5087671;28;20028;-78
2021/12/10 07:14:08;;;;;;;17.52;9.68;;;3.80;99.90;;;;;;5083278;28;20100;-78
2021/12/10 07:16:35;;;;;;;15.32;10.15;;;3.80;99.90;;;;;;5067278;28;20040;-78
2021/12/10 07:19:03;;;;;;;17.70;9.68;;;3.80;99.90;;;;;;5082985;28;20036;-79
2021/12/10 07:21:29;;;;;;;16.52;10.93;;;3.70;99.90;;;;;;5084097;28;20044;-78
2021/12/10 07:23:56;;;;;;;16.27;10.45;;;3.70;99.90;;;;;;5083982;28;20028;-78
2021/12/10 07:26:22;;;;;;;19.10;11.35;;;3.80;99.90;;;;;;5084085;28;20414;-78
2021/12/10 07:28:47;;;;;;;17.13;9.90;;;3.70;99.90;;;;;;5061920;28;20036;-79
2021/12/10 07:31:14;;;;;;;18.27;10.05;;;3.70;99.90;;;;;;5101626;27;20070;-79
2021/12/10 07:33:41;;;;;;;16.17;9.95;;;3.70;99.90;;;;;;5086245;28;20047;-78
2021/12/10 07:36:07;;;;;;;17.23;9.57;;;3.70;99.90;;;;;;5086362;28;20050;-78
2021/12/10 07:38:34;;;;;;;19.85;10.02;;;3.70;99.90;;;;;;5087765;28;20136;-78
2021/12/10 07:41:01;;;;;;;19.27;9.45;;;3.70;99.90;;;;;;5067997;28;20424;-78
2021/12/10 07:43:27;;;;;;;13.68;8.73;;;3.70;99.90;;;;;;5076687;28;20044;-78
2021/12/10 07:45:53;;;;;;;13.98;8.60;;;3.60;99.90;;;;;;5082813;28;20032;-78
2021/12/10 07:48:24;;;;;;;18.02;9.13;;;3.60;99.90;;;;;;5081857;28;20675;-78
2021/12/10 07:50:59;;;;;;;17.50;8.88;;;3.60;99.90;;;;;;5086607;28;20035;-79
2021/12/10 07:53:28;;;;;;;14.43;8.97;;;3.60;99.90;;;;;;5087013;28;20076;-78
2021/12/10 07:55:55;;;;;;;20.02;9.15;;;3.60;99.90;;;;;;5083304;28;20046;-78
2021/12/10 07:58:21;;;;;;;16.35;9.45;;;3.50;99.90;;;;;;5079914;28;20040;-78
2021/12/10 08:00:48;;;;;;;20.20;9.55;;;3.50;99.90;;;;;;5087482;28;20092;-79
2021/12/10 08:03:15;;;;;;;15.57;9.65;;;3.50;99.90;;;;;;5067834;28;20401;-78
2021/12/10 08:05:41;;;;;;;18.85;9.13;;;3.50;99.90;;;;;;5086220;28;20032;-78
2021/12/10 08:08:08;;;;;;;16.60;10.32;;;3.50;99.90;;;;;;5081456;28;20127;-79
2021/12/10 08:10:34;;;;;;;16.42;9.07;;;3.50;99.90;;;;;;5071066;28;20036;-78
2021/12/10 08:13:00;;;;;;;16.63;9.75;;;3.50;99.90;;;;;;5064085;28;20028;-77
2021/12/10 08:15:26;;;;;;;15.00;9.45;;;3.50;99.90;;;;;;5081718;28;20105;-77
2021/12/10 08:17:52;;;;;;;14.63;8.98;;;3.50;99.90;;;;;;5067672;28;20248;-77
2021/12/10 08:20:21;;;;;;;17.00;8.80;;;3.50;99.90;;;;;;5065056;28;20526;-78
2021/12/10 08:22:48;;;;;;;17.58;9.02;;;3.50;99.90;;;;;;5069268;28;20546;-78
2021/12/10 08:25:14;;;;;;;12.90;8.45;;;3.50;99.90;;;;;;5069553;28;20043;-78
2021/12/10 08:27:40;;;;;;;14.23;8.57;;;3.50;99.90;;;;;;5070769;28;20044;-78
2021/12/10 08:30:09;;;;;;;22.40;9.45;;;3.50;99.90;;;;;;5067701;28;20032;-77
2021/12/10 08:32:35;;;;;;;17.60;9.50;;;3.50;99.90;;;;;;5083139;28;20032;-79
2021/12/10 08:35:03;;;;;;;15.88;8.10;;;3.50;99.90;;;;;;5083741;28;20036;-78
2021/12/10 08:37:29;;;;;;;12.77;8.32;;;3.60;99.90;;;;;;5082590;28;20078;-78
2021/12/10 08:39:55;;;;;;;15.27;7.53;;;3.60;99.90;;;;;;5079613;28;20083;-77
2021/12/10 08:42:21;;;;;;;15.63;8.20;;;3.60;99.90;;;;;;5085795;28;20040;-78
2021/12/10 08:44:47;;;;;;;16.23;8.85;;;3.60;99.90;;;;;;5080226;28;20059;-78
2021/12/10 08:47:12;;;;;;;16.38;7.88;;;3.60;99.90;;;;;;5086024;28;20035;-84
2021/12/10 08:49:39;;;;;;;17.15;8.93;;;3.60;99.90;;;;;;5081592;28;20082;-84
2021/12/10 08:52:08;;;;;;;14.75;7.03;;;3.60;99.90;;;;;;5078408;28;20043;-80
2021/12/10 08:54:35;;;;;;;15.20;8.48;;;3.60;99.90;;;;;;5082978;28;20036;-79
2021/12/10 08:57:01;;;;;;;18.95;7.63;;;3.60;99.90;;;;;;5098033;28;20512;-79
2021/12/10 08:59:27;;;;;;;13.40;7.80;;;3.60;99.90;;;;;;5085599;28;20089;-79
2021/12/10 09:02:00;;;;;;;16.08;8.10;;;3.60;99.90;;;;;;5083467;28;20036;-79
2021/12/10 09:04:29;;;;;;;12.10;7.32;;;3.60;99.90;;;;;;5063921;28;20119;-79
2021/12/10 09:07:02;;;;;;;13.60;7.15;;;3.60;99.90;;;;;;5075853;28;20028;-79
2021/12/10 09:09:30;;;;;;;12.38;7.63;;;3.60;99.90;;;;;;5067527;28;20571;-80
2021/12/10 09:11:58;;;;;;;15.75;8.68;;;3.60;99.90;;;;;;5075122;28;20043;-78
2021/12/10 09:14:28;;;;;;;13.25;7.82;;;3.60;99.90;;;;;;5084538;28;20083;-79
2021/12/10 09:16:56;;;;;;;13.88;7.03;;;3.60;99.90;;;;;;5062952;28;20036;-79
2021/12/10 09:19:23;;;;;;;20.23;7.60;;;3.60;99.90;;;;;;5078505;28;20130;-79
2021/12/10 09:21:49;;;;;;;15.07;7.55;;;3.70;99.90;;;;;;5100171;28;20530;-81
2021/12/10 09:24:18;;;;;;;15.57;7.38;;;3.70;99.90;;;;;;5083263;28;20051;-77
2021/12/10 09:26:45;;;;;;;11.13;6.85;;;3.70;99.90;;;;;;5079966;28;20562;-77
2021/12/10 09:29:13;;;;;;;16.13;8.02;;;3.70;99.90;;;;;;5065539;28;20501;-77
2021/12/10 09:31:42;;;;;;;14.85;7.25;;;3.70;99.90;;;;;;5083558;28;20036;-78
2021/12/10 09:34:08;;;;;;;17.42;7.15;;;3.70;99.90;;;;;;5084623;28;20313;-81
2021/12/10 09:36:34;;;;;;;10.57;6.93;;;3.80;99.90;;;;;;5067718;28;20149;-78
2021/12/10 09:39:00;;;;;;;13.95;7.47;;;3.80;99.90;;;;;;5083799;28;20123;-78
2021/12/10 09:41:27;;;;;;;12.73;7.53;;;3.80;99.90;;;;;;5066858;28;20060;-79
2021/12/10 09:43:53;;;;;;;15.02;8.40;;;3.80;99.90;;;;;;5062632;28;20522;-78
2021/12/10 09:46:19;;;;;;;12.52;7.25;;;3.90;99.90;;;;;;5088414;28;20089;-78
2021/12/10 09:48:46;;;;;;;12.68;7.43;;;3.90;99.90;;;;;;5085238;28;20404;-78
2021/12/10 09:51:16;;;;;;;13.05;7.22;;;3.90;99.90;;;;;;5086211;28;20032;-78
2021/12/10 09:53:46;;;;;;;12.25;7.72;;;3.90;99.90;;;;;;5087717;28;20539;-78
2021/12/10 09:56:14;;;;;;;15.18;7.25;;;3.90;99.90;;;;;;5069737;28;20048;-78
2021/12/10 09:58:40;;;;;;;13.13;7.88;;;3.90;99.90;;;;;;5080662;28;20071;-78
2021/12/10 10:01:15;;;;;;;12.48;7.80;;;3.90;99.90;;;;;;5069755;28;20433;-78
2021/12/10 10:03:50;;;;;;;13.43;8.07;;;4.00;99.90;;;;;;5083925;28;20426;-78
2021/12/10 10:06:18;;;;;;;13.52;7.70;;;4.00;99.90;;;;;;5069099;28;20541;-82
2021/12/10 10:08:45;;;;;;;12.65;7.05;;;4.00;99.90;;;;;;5084831;28;20028;-78
2021/12/10 10:11:16;;;;;;;12.77;6.95;;;4.00;99.90;;;;;;5083387;28;20040;-78
2021/12/10 10:13:51;;;;;;;14.27;7.28;;;4.00;99.90;;;;;;5079544;28;20099;-78
2021/12/10 10:16:20;;;;;;;11.67;7.00;;;4.00;99.90;;;;;;5086318;28;20051;-78
2021/12/10 10:18:48;;;;;;;13.13;7.00;;;4.00;99.90;;;;;;5086108;28;20392;-78
2021/12/10 10:21:36;;;;;;;12.07;6.90;;;4.00;99.90;;;;;;5088111;28;20713;-77
2021/12/10 10:24:03;;;;;;;19.35;7.25;;;4.00;99.90;;;;;;5078254;28;20048;-78
2021/12/10 10:26:33;;;;;;;12.55;6.82;;;4.00;99.90;;;;;;5071329;28;20040;-78
2021/12/10 10:29:03;;;;;;;10.45;6.00;;;4.10;99.90;;;;;;5063951;28;20036;-78
2021/12/10 10:31:29;;;;;;;10.57;6.45;;;4.10;99.90;;;;;;5071931;28;20458;-77
2021/12/10 10:34:01;;;;;;;13.82;6.50;;;4.10;99.90;;;;;;5079964;28;20150;-77
2021/12/10 10:36:30;;;;;;;14.00;6.95;;;4.10;99.90;;;;;;5060317;28;20071;-77
2021/12/10 10:39:04;;;;;;;11.55;5.85;;;4.20;99.90;;;;;;5060087;28;20484;-77
2021/12/10 10:41:33;;;;;;;13.02;6.82;;;4.20;99.90;;;;;;5063787;28;20051;-78
2021/12/10 10:44:00;;;;;;;13.68;6.45;;;4.20;99.90;;;;;;5079644;28;20039;-77
2021/12/10 10:46:26;;;;;;;12.82;6.25;;;4.20;99.90;;;;;;5058249;28;20404;-78
2021/12/10 10:48:53;;;;;;;10.02;5.78;;;4.20;99.90;;;;;;5062781;28;20036;-78
2021/12/10 10:51:32;;;;;;;9.68;6.25;;;4.20;99.90;;;;;;5064495;28;20547;-77
2021/12/10 10:54:02;;;;;;;13.50;5.93;;;4.20;99.90;;;;;;5079769;28;20039;-76
2021/12/10 10:56:46;;;;;;;10.80;5.53;;;4.30;99.90;;;;;;5058627;28;20425;-76
2021/12/10 10:59:20;;;;;;;13.05;6.28;;;4.30;99.90;;;;;;5078113;28;20222;-78
2021/12/10 11:01:59;;;;;;;10.35;5.90;;;4.30;99.90;;;;;;5076404;28;20659;-77
2021/12/10 11:04:29;;;;;;;9.43;5.53;;;4.30;99.90;;;;;;5079454;28;20039;-77
2021/12/10 11:07:18;;;;;;;10.65;5.72;;;4.30;99.90;;;;;;5076757;28;20119;-77
2021/12/10 11:09:52;;;;;;;12.30;5.65;;;4.30;99.90;;;;;;5061687;28;20047;-77
2021/12/10 11:12:34;;;;;;;11.15;6.10;;;4.40;99.90;;;;;;5074826;28;20048;-78
2021/12/10 11:15:09;;;;;;;11.85;5.63;;;4.40;99.90;;;;;;5079200;28;20492;-78
2021/12/10 11:17:36;;;;;;;9.13;5.50;;;4.40;99.90;;;;;;5094414;28;20115;-78
2021/12/10 11:20:25;;;;;;;12.60;5.40;;;4.40;99.90;;;;;;5066937;28;20058;-78
2021/12/10 11:22:54;;;;;;;8.90;5.38;;;4.40;99.90;;;;;;5076154;28;20040;-78
2021/12/10 11:25:25;;;;;;;10.70;5.70;;;4.40;99.90;;;;;;5061325;28;20036;-78
2021/12/10 11:28:00;;;;;;;9.70;5.50;;;4.50;99.90;;;;;;5073925;28;20202;-78
2021/12/10 11:30:27;;;;;;;10.75;5.40;;;4.50;99.90;;;;;;5076550;28;20036;-78
2021/12/10 11:33:00;;;;;;;10.25;4.78;;;4.50;99.90;;;;;;5077296;28;20080;-79
2021/12/10 11:35:36;;;;;;;11.20;6.22;;;4.50;99.90;;;;;;5085551;28;20092;-79
2021/12/10 11:38:10;;;;;;;;;;;4.50;99.90;;;;;;5075533;28;20078;-78
2021/12/10 11:41:04;;;;;;;10.20;4.97;;;4.50;99.90;;;;;;5062401;28;19999;-78
2021/12/10 11:46:30;;;;;;;18.83;8.02;;;4.50;99.90;;;;;;5085453;28;20036;-78
2021/12/10 11:49:06;;;;;;;11.05;5.82;;;4.60;99.90;;;;;;5085863;28;20092;-77
2021/12/10 11:51:40;;;;;;;11.73;5.97;;;4.60;99.90;;;;;;5062370;28;20089;-78
2021/12/10 11:54:17;;;;;;;14.88;5.68;;;4.60;99.90;;;;;;5080404;28;20186;-78
2021/12/10 11:57:02;;;;;;;11.48;5.00;;;4.60;99.90;;;;;;5094779;28;20032;-77
2021/12/10 11:59:35;;;;;;;9.13;5.00;;;4.60;99.90;;;;;;5081765;28;20051;-78
2021/12/10 12:02:13;;;;;;;8.88;5.07;;;4.60;99.90;;;;;;5063246;28;20043;-77
2021/12/10 12:04:55;;;;;;;9.10;5.00;;;4.60;99.90;;;;;;5064900;28;20079;-77
2021/12/10 12:07:40;;;;;;;10.10;4.72;;;4.60;99.90;;;;;;5083566;28;20714;-77
2021/12/10 12:10:21;;;;;;;7.80;4.83;;;4.70;99.90;;;;;;5082677;28;20040;-76
2021/12/10 12:12:51;;;;;;;11.10;4.93;;;4.70;99.90;;;;;;5082440;28;20321;-78
2021/12/10 12:15:19;;;;;;;20.63;5.00;;;4.70;99.90;;;;;;5063424;28;20381;-80
2021/12/10 12:17:49;;;;;;;10.68;4.97;;;4.70;99.90;;;;;;5082633;28;20185;-78
2021/12/10 12:20:38;;;;;;;10.05;4.63;;;4.70;99.90;;;;;;5082527;28;20085;-76
2021/12/10 12:26:16;;;;;;;10.75;4.40;;;4.70;99.90;;;;;;5080779;28;20040;-78
2021/12/10 12:28:49;;;;;;;8.13;4.80;;;4.70;99.90;;;;;;5084307;28;20055;-80
2021/12/10 12:31:19;;;;;;;10.07;4.55;;;4.70;99.90;;;;;;5066769;28;20123;-76
2021/12/10 12:34:01;;;;;;;10.57;4.78;;;4.70;99.90;;;;;;5079018;28;20503;-85
2021/12/10 12:36:47;;;;;;;10.38;4.53;;;4.70;99.90;;;;;;5067820;28;20044;-79
2021/12/10 12:39:30;;;;;;;8.98;4.55;;;4.70;99.90;;;;;;5062629;28;20565;-79
2021/12/10 12:41:58;;;;;;;8.52;4.20;;;4.70;99.90;;;;;;5068788;28;20412;-84
2021/12/10 12:44:33;;;;;;;11.93;4.70;;;4.70;99.90;;;;;;5084713;28;20039;-79
2021/12/10 12:47:13;;;;;;;9.25;3.88;;;4.70;99.90;;;;;;5066251;28;20173;-78
2021/12/10 12:49:48;;;;;;;8.73;3.72;;;4.70;99.90;;;;;;5069694;28;20032;-83
2021/12/10 12:52:16;;;;;;;13.77;4.40;;;4.70;99.90;;;;;;5082100;28;20127;-78
2021/12/10 12:55:03;;;;;;;7.60;3.78;;;4.70;99.90;;;;;;5070306;28;20089;-78
2021/12/10 12:57:46;;;;;;;11.70;4.43;;;4.70;99.90;;;;;;5087939;28;20043;-78
2021/12/10 13:00:22;;;;;;;9.57;4.28;;;4.70;99.90;;;;;;5088097;28;20036;-78
2021/12/10 13:02:57;;;;;;;6.70;3.40;;;4.70;99.90;;;;;;5088032;28;20039;-78
2021/12/10 13:06:14;;;;;;;13.33;5.13;;;4.70;99.90;;;;;;5087623;28;20135;-78
2021/12/10 13:08:44;;;;;;;8.10;4.43;;;4.70;99.90;;;;;;5049864;28;20126;-77
2021/12/10 13:11:28;;;;;;;13.70;4.07;;;4.70;99.90;;;;;;5085233;28;20036;-78